Time;durP1;ratioP1;P1;durP2;ratioP2;P2;SDS_P1;SDS_P2;PMS_P1;PMS_P2;Temp;Humidity;BMP_temperature;BMP_pressure;BME280_temperature;BME280_humidity;BME280_pressure;Samples;Min_cycle;Max_cycle;Signal;HPM_P1;HPM_P2
2023/07/07 00:01:09;;;;;;;3.55;2.92;;;14.60;99.90;;;;;;5051674;28;20524;-68
2023/07/07 00:03:35;;;;;;;4.45;3.38;;;14.50;99.90;;;;;;5052458;28;20041;-68
2023/07/07 00:06:02;;;;;;;6.30;3.78;;;14.50;99.90;;;;;;5052325;28;20382;-68
2023/07/07 00:08:28;;;;;;;7.70;4.35;;;14.50;99.90;;;;;;5052004;28;20045;-68
2023/07/07 00:10:54;;;;;;;6.20;4.03;;;14.50;99.90;;;;;;5051801;28;20033;-68
2023/07/07 00:13:20;;;;;;;6.53;4.03;;;14.40;99.90;;;;;;5052044;28;20037;-68
2023/07/07 00:15:46;;;;;;;6.80;4.13;;;14.40;99.90;;;;;;5051980;28;20037;-68
2023/07/07 00:18:14;;;;;;;4.93;3.90;;;14.40;99.90;;;;;;5051966;28;20055;-68
2023/07/07 00:20:40;;;;;;;10.90;4.32;;;14.40;99.90;;;;;;5051836;28;20060;-68
2023/07/07 00:23:05;;;;;;;6.28;4.07;;;14.40;99.90;;;;;;5052048;28;20044;-68
2023/07/07 00:25:31;;;;;;;7.03;4.82;;;14.40;99.90;;;;;;5051986;28;20052;-68
2023/07/07 00:27:56;;;;;;;8.85;4.47;;;14.30;99.90;;;;;;5051703;28;20047;-68
2023/07/07 00:30:22;;;;;;;6.72;4.70;;;14.30;99.90;;;;;;5051308;28;20389;-68
2023/07/07 00:32:47;;;;;;;7.10;4.32;;;14.30;99.90;;;;;;5051978;28;20068;-68
2023/07/07 00:35:13;;;;;;;6.47;4.78;;;14.30;99.90;;;;;;5060323;28;20032;-68
2023/07/07 00:37:39;;;;;;;9.32;4.97;;;14.30;99.90;;;;;;5057136;28;20392;-68
2023/07/07 00:40:05;;;;;;;7.32;4.30;;;14.30;99.90;;;;;;5056494;28;20037;-68
2023/07/07 00:42:31;;;;;;;5.00;3.30;;;14.30;99.90;;;;;;5051377;28;20055;-68
2023/07/07 00:45:16;;;;;;;8.32;3.88;;;14.20;99.90;;;;;;5051353;28;20128;-68
2023/07/07 00:48:00;;;;;;;6.63;4.60;;;14.10;99.90;;;;;;5051498;28;20045;-68
2023/07/07 00:50:30;;;;;;;;;;;14.00;99.90;;;;;;5051693;28;20051;-68
2023/07/07 00:52:56;;;;;;;6.68;4.10;;;14.10;99.90;;;;;;5051560;28;20289;-68
2023/07/07 00:55:32;;;;;;;5.90;3.70;;;14.00;99.90;;;;;;5051394;28;20044;-68
2023/07/07 00:58:02;;;;;;;6.53;4.00;;;13.90;99.90;;;;;;5051431;28;20044;-68
2023/07/07 01:00:27;;;;;;;5.75;3.45;;;13.80;99.90;;;;;;5051254;28;20041;-68
2023/07/07 01:02:56;;;;;;;6.88;4.38;;;13.80;99.90;;;;;;5051759;28;20029;-68
2023/07/07 01:05:28;;;;;;;9.60;4.93;;;13.90;99.90;;;;;;5053854;28;20520;-68
2023/07/07 01:07:59;;;;;;;6.15;4.50;;;13.80;99.90;;;;;;5051060;28;20401;-68
2023/07/07 01:10:25;;;;;;;5.90;4.40;;;13.90;99.90;;;;;;5049662;28;20436;-68
2023/07/07 01:12:51;;;;;;;5.85;4.13;;;13.90;99.90;;;;;;5053966;28;20048;-68
2023/07/07 01:15:18;;;;;;;5.53;4.28;;;13.80;99.90;;;;;;5055590;28;20041;-68
2023/07/07 01:18:01;;;;;;;7.18;4.40;;;13.90;99.90;;;;;;5055259;28;20040;-68
2023/07/07 01:21:01;;;;;;;10.88;5.28;;;13.80;99.90;;;;;;5054914;28;20086;-67
2023/07/07 01:23:48;;;;;;;7.00;4.80;;;13.80;99.90;;;;;;5055331;28;20459;-68
2023/07/07 01:26:35;;;;;;;6.90;4.97;;;13.80;99.90;;;;;;5055440;28;20068;-68
2023/07/07 01:29:25;;;;;;;7.93;4.50;;;13.70;99.90;;;;;;5054959;28;20479;-68
2023/07/07 01:31:58;;;;;;;7.45;4.85;;;13.70;99.90;;;;;;5054844;28;20464;-68
2023/07/07 01:34:24;;;;;;;8.27;5.47;;;13.80;99.90;;;;;;5055054;28;20053;-68
2023/07/07 01:36:50;;;;;;;8.00;5.43;;;13.70;99.90;;;;;;5055139;28;20041;-68
2023/07/07 01:39:15;;;;;;;8.63;5.50;;;13.70;99.90;;;;;;5054615;28;20044;-68
2023/07/07 01:41:58;;;;;;;10.60;4.97;;;13.70;99.90;;;;;;5054827;28;20116;-68
2023/07/07 01:44:28;;;;;;;8.30;5.05;;;13.70;99.90;;;;;;5054856;28;20037;-68
2023/07/07 01:47:05;;;;;;;10.05;5.90;;;13.70;99.90;;;;;;5054741;28;20083;-68
2023/07/07 01:49:46;;;;;;;8.70;4.90;;;13.70;99.90;;;;;;5054828;28;20045;-68
2023/07/07 01:52:19;;;;;;;7.32;5.50;;;13.70;99.90;;;;;;5054411;28;20579;-68
2023/07/07 01:54:51;;;;;;;10.38;7.20;;;13.70;99.90;;;;;;5054662;28;20519;-68
2023/07/07 01:57:17;;;;;;;12.32;7.35;;;13.80;99.90;;;;;;5054573;28;20072;-68
2023/07/07 01:59:43;;;;;;;9.75;6.80;;;13.70;99.90;;;;;;5054720;28;20103;-68
2023/07/07 02:02:09;;;;;;;14.90;7.35;;;13.70;99.90;;;;;;5054199;28;20056;-68
2023/07/07 02:04:34;;;;;;;10.10;7.15;;;13.60;99.90;;;;;;5054674;28;20079;-68
2023/07/07 02:07:00;;;;;;;11.43;8.23;;;13.70;99.90;;;;;;5054771;28;20067;-68
2023/07/07 02:09:26;;;;;;;10.50;7.28;;;13.70;99.90;;;;;;5054107;28;20048;-68
2023/07/07 02:11:52;;;;;;;12.77;7.82;;;13.60;99.90;;;;;;5054120;28;20063;-68
2023/07/07 02:14:17;;;;;;;15.80;8.23;;;13.60;99.90;;;;;;5054340;28;20431;-68
2023/07/07 02:16:43;;;;;;;16.52;8.45;;;13.60;99.90;;;;;;5054363;28;20156;-68
2023/07/07 02:19:09;;;;;;;12.40;8.05;;;13.60;99.90;;;;;;5054225;28;20059;-68
2023/07/07 02:21:34;;;;;;;11.13;8.40;;;13.60;99.90;;;;;;5054104;28;20119;-68
2023/07/07 02:24:00;;;;;;;15.38;8.48;;;13.50;99.90;;;;;;5054140;28;20036;-68
2023/07/07 02:26:25;;;;;;;12.88;8.13;;;13.50;99.90;;;;;;5054259;28;20504;-68
2023/07/07 02:28:51;;;;;;;14.57;8.70;;;13.60;99.90;;;;;;5053866;28;20496;-68
2023/07/07 02:31:16;;;;;;;12.30;8.65;;;13.60;99.90;;;;;;5053407;28;20048;-68
2023/07/07 02:33:42;;;;;;;15.48;9.32;;;13.60;99.90;;;;;;5053737;28;20040;-68
2023/07/07 02:36:09;;;;;;;14.77;8.55;;;13.60;99.90;;;;;;5053664;28;20072;-68
2023/07/07 02:38:35;;;;;;;12.15;8.70;;;13.50;99.90;;;;;;5053733;28;20095;-68
2023/07/07 02:41:01;;;;;;;12.88;8.75;;;13.60;99.90;;;;;;5053621;28;20040;-68
2023/07/07 02:43:28;;;;;;;14.55;9.70;;;13.50;99.90;;;;;;5053681;28;20459;-68
2023/07/07 02:45:53;;;;;;;14.70;9.38;;;13.60;99.90;;;;;;5053786;28;20075;-68
2023/07/07 02:48:20;;;;;;;14.05;8.30;;;13.50;99.90;;;;;;5053685;28;20045;-68
2023/07/07 02:50:57;;;;;;;14.13;8.35;;;13.40;99.90;;;;;;5053394;28;20047;-68
2023/07/07 02:53:26;;;;;;;15.85;9.32;;;13.50;99.90;;;;;;5053592;28;20044;-68
2023/07/07 02:55:52;;;;;;;14.45;9.23;;;13.50;99.90;;;;;;5053519;28;20461;-68
2023/07/07 02:58:18;;;;;;;12.55;9.65;;;13.50;99.90;;;;;;5053267;28;20090;-68
2023/07/07 03:00:44;;;;;;;13.57;9.50;;;13.40;99.90;;;;;;5053445;28;20040;-68
2023/07/07 03:03:10;;;;;;;13.73;9.10;;;13.50;99.90;;;;;;5053416;28;20485;-68
2023/07/07 03:05:35;;;;;;;13.18;9.27;;;13.40;99.90;;;;;;5053545;28;20665;-68
2023/07/07 03:08:01;;;;;;;14.02;9.55;;;13.30;99.90;;;;;;5053152;28;20069;-68
2023/07/07 03:10:26;;;;;;;16.00;9.10;;;13.30;99.90;;;;;;5052862;28;20037;-68
2023/07/07 03:12:52;;;;;;;14.00;9.52;;;13.30;99.90;;;;;;5053213;28;20041;-68
2023/07/07 03:15:20;;;;;;;15.43;9.90;;;13.30;99.90;;;;;;5053483;28;20036;-68
2023/07/07 03:17:47;;;;;;;13.32;8.93;;;13.30;99.90;;;;;;5053087;28;20416;-68
2023/07/07 03:20:13;;;;;;;14.57;9.02;;;13.30;99.90;;;;;;5052872;28;20037;-68
2023/07/07 03:22:38;;;;;;;14.07;10.00;;;13.30;99.90;;;;;;5052623;28;20075;-68
2023/07/07 03:25:04;;;;;;;14.82;9.63;;;13.20;99.90;;;;;;5051792;28;20059;-68
2023/07/07 03:27:30;;;;;;;14.77;9.93;;;13.30;99.90;;;;;;5052059;28;20060;-68
2023/07/07 03:29:56;;;;;;;11.95;9.65;;;13.30;99.90;;;;;;5052762;28;20036;-68
2023/07/07 03:32:21;;;;;;;13.95;9.63;;;13.30;99.90;;;;;;5052347;28;20043;-68
2023/07/07 03:34:50;;;;;;;19.20;10.20;;;13.30;99.90;;;;;;5052215;28;20041;-68
2023/07/07 03:37:16;;;;;;;16.13;9.45;;;13.20;99.90;;;;;;5052406;28;20459;-68
2023/07/07 03:39:42;;;;;;;16.25;10.07;;;13.20;99.90;;;;;;5052809;28;20028;-68
2023/07/07 03:42:08;;;;;;;17.05;10.02;;;13.30;99.90;;;;;;5052291;28;20493;-68
2023/07/07 03:44:35;;;;;;;14.18;9.43;;;13.20;99.90;;;;;;5079854;22;20219;-66
2023/07/07 03:47:00;;;;;;;15.90;10.85;;;13.30;99.90;;;;;;5072231;28;20500;-66
2023/07/07 03:49:26;;;;;;;13.18;8.93;;;13.20;99.90;;;;;;5071746;28;20058;-67
2023/07/07 03:51:52;;;;;;;14.18;10.15;;;13.20;99.90;;;;;;5071882;28;20037;-66
2023/07/07 03:54:17;;;;;;;15.95;9.95;;;13.20;99.90;;;;;;5072110;28;20420;-66
2023/07/07 03:56:43;;;;;;;17.35;10.30;;;13.30;99.90;;;;;;5070789;28;20040;-67
2023/07/07 03:59:08;;;;;;;15.48;10.70;;;13.20;99.90;;;;;;5071484;28;20037;-66
2023/07/07 04:01:34;;;;;;;14.05;11.02;;;13.30;99.90;;;;;;5071837;28;20041;-66
2023/07/07 04:03:59;;;;;;;17.95;10.50;;;13.20;99.90;;;;;;5072192;28;20043;-66
2023/07/07 04:06:26;;;;;;;12.60;10.27;;;13.20;99.90;;;;;;5072006;28;20044;-68
2023/07/07 04:08:51;;;;;;;17.58;11.07;;;13.20;99.90;;;;;;5071671;28;20445;-67
2023/07/07 04:11:20;;;;;;;15.52;10.00;;;13.30;99.90;;;;;;5071318;28;20041;-66
2023/07/07 04:13:48;;;;;;;16.15;10.98;;;13.30;99.90;;;;;;5071650;28;20515;-67
2023/07/07 04:16:17;;;;;;;13.75;10.52;;;13.30;99.90;;;;;;5072023;28;20047;-67
2023/07/07 04:18:44;;;;;;;16.65;10.95;;;13.30;99.90;;;;;;5071816;28;20037;-68
2023/07/07 04:21:21;;;;;;;19.88;12.05;;;13.40;99.90;;;;;;5071518;28;20135;-66
2023/07/07 04:23:49;;;;;;;14.93;11.07;;;13.40;99.90;;;;;;5071988;28;20036;-67
2023/07/07 04:26:16;;;;;;;18.17;12.25;;;13.40;99.90;;;;;;5068282;28;20107;-67
2023/07/07 04:28:42;;;;;;;19.58;10.98;;;13.50;99.90;;;;;;5061208;28;20074;-67
2023/07/07 04:31:10;;;;;;;16.17;11.13;;;13.60;99.90;;;;;;5071136;28;20496;-67
2023/07/07 04:33:36;;;;;;;17.10;10.77;;;13.60;99.90;;;;;;5069490;28;20571;-67
2023/07/07 04:36:05;;;;;;;18.52;11.80;;;13.60;99.90;;;;;;5070266;28;20040;-67
2023/07/07 04:38:31;;;;;;;18.35;11.25;;;13.70;99.90;;;;;;5071224;28;20039;-66
2023/07/07 04:41:23;;;;;;;16.48;11.55;;;13.70;99.90;;;;;;5071305;28;20046;-67
2023/07/07 04:43:54;;;;;;;17.52;11.65;;;13.70;99.90;;;;;;5071563;28;20051;-67
2023/07/07 04:46:27;;;;;;;16.88;11.25;;;13.80;99.90;;;;;;5069161;28;20094;-67
2023/07/07 04:48:53;;;;;;;16.65;11.68;;;14.00;99.90;;;;;;5071086;28;20047;-66
2023/07/07 04:51:19;;;;;;;25.27;12.65;;;14.10;99.90;;;;;;5070836;28;20400;-67
2023/07/07 04:53:45;;;;;;;15.38;11.77;;;14.20;99.90;;;;;;5071529;28;20033;-66
2023/07/07 04:56:14;;;;;;;14.15;10.95;;;14.40;99.90;;;;;;5071419;28;20059;-66
2023/07/07 04:58:40;;;;;;;15.95;11.32;;;14.50;99.90;;;;;;5065527;28;20064;-66
2023/07/07 05:01:07;;;;;;;18.35;11.18;;;14.80;99.90;;;;;;5070715;28;20040;-66
2023/07/07 05:03:33;;;;;;;16.45;11.00;;;14.90;99.90;;;;;;5071069;28;20089;-67
2023/07/07 05:05:59;;;;;;;17.90;11.73;;;15.20;99.90;;;;;;5071289;28;20150;-66
2023/07/07 05:08:24;;;;;;;18.83;12.63;;;15.40;99.90;;;;;;5070904;28;20577;-67
2023/07/07 05:10:50;;;;;;;17.35;10.23;;;15.60;99.90;;;;;;5070809;28;20114;-66
2023/07/07 05:13:15;;;;;;;15.43;11.77;;;15.80;99.90;;;;;;5071167;28;20404;-66
2023/07/07 05:15:41;;;;;;;17.58;11.05;;;16.10;99.90;;;;;;5071154;28;20029;-67
2023/07/07 05:18:07;;;;;;;13.60;10.38;;;16.30;99.90;;;;;;5070564;28;20117;-66
2023/07/07 05:20:33;;;;;;;17.23;10.90;;;16.60;99.90;;;;;;5070902;28;20462;-66
2023/07/07 05:22:58;;;;;;;16.48;10.63;;;16.80;99.90;;;;;;5071187;28;20037;-67
2023/07/07 05:25:24;;;;;;;15.13;11.18;;;17.00;99.90;;;;;;5071106;28;20032;-67
2023/07/07 05:27:49;;;;;;;16.20;11.07;;;17.30;99.90;;;;;;5070746;28;20119;-66
2023/07/07 05:30:15;;;;;;;14.65;10.73;;;17.50;99.90;;;;;;5070606;28;20527;-67
2023/07/07 05:32:41;;;;;;;15.50;10.70;;;17.70;99.90;;;;;;5070621;28;20069;-67
2023/07/07 05:35:06;;;;;;;15.15;10.63;;;18.00;99.90;;;;;;5071041;28;20041;-67
2023/07/07 05:37:32;;;;;;;18.05;11.23;;;18.20;99.90;;;;;;5070734;28;20032;-66
2023/07/07 05:39:58;;;;;;;16.08;11.68;;;18.40;99.90;;;;;;5071006;28;20033;-67
2023/07/07 05:42:23;;;;;;;15.48;11.38;;;18.60;99.90;;;;;;5070510;28;20079;-67
2023/07/07 05:44:49;;;;;;;18.40;10.73;;;18.90;99.90;;;;;;5070632;28;20040;-66
2023/07/07 05:47:14;;;;;;;16.75;11.63;;;19.10;99.90;;;;;;5070435;28;20044;-67
2023/07/07 05:49:40;;;;;;;16.25;10.57;;;19.30;99.90;;;;;;5070715;28;20057;-67
2023/07/07 05:52:07;;;;;;;13.65;9.68;;;19.50;99.90;;;;;;5070313;28;20044;-67
2023/07/07 05:54:32;;;;;;;16.60;10.13;;;19.70;99.90;;;;;;5070808;28;20068;-67
2023/07/07 05:57:00;;;;;;;15.90;9.82;;;19.90;99.90;;;;;;5070918;28;20467;-67
2023/07/07 05:59:25;;;;;;;12.85;8.77;;;20.10;99.90;;;;;;5073120;28;20075;-67
2023/07/07 06:01:51;;;;;;;16.60;10.70;;;20.40;99.90;;;;;;5073818;28;20044;-67
2023/07/07 06:04:16;;;;;;;13.45;9.68;;;20.70;99.90;;;;;;5074419;28;20530;-67
2023/07/07 06:06:42;;;;;;;11.55;9.20;;;20.90;99.90;;;;;;5074364;28;20040;-67
2023/07/07 06:09:07;;;;;;;11.65;9.57;;;21.00;99.90;;;;;;5074117;28;20124;-67
2023/07/07 06:11:33;;;;;;;11.93;9.02;;;21.20;99.90;;;;;;5073799;28;20055;-67
2023/07/07 06:13:59;;;;;;;14.23;9.18;;;21.40;99.90;;;;;;5074163;28;20036;-67
2023/07/07 06:16:24;;;;;;;13.90;8.73;;;21.50;99.90;;;;;;5074005;28;20127;-67
2023/07/07 06:18:50;;;;;;;14.00;8.93;;;21.70;99.90;;;;;;5074085;28;20454;-67
2023/07/07 06:21:15;;;;;;;12.32;8.70;;;21.90;99.90;;;;;;5073880;28;20115;-67
2023/07/07 06:23:42;;;;;;;18.13;8.85;;;22.10;99.90;;;;;;5056083;28;20471;-67
2023/07/07 06:26:07;;;;;;;14.88;8.02;;;22.40;99.90;;;;;;5074066;28;20060;-67
2023/07/07 06:28:33;;;;;;;10.05;6.60;;;22.70;99.90;;;;;;5073751;28;20411;-67
2023/07/07 06:30:58;;;;;;;8.50;6.57;;;22.80;99.90;;;;;;5073476;28;20445;-67
2023/07/07 06:33:24;;;;;;;7.72;6.78;;;23.20;99.90;;;;;;5073704;28;20471;-67
2023/07/07 06:35:50;;;;;;;10.68;6.97;;;23.30;99.90;;;;;;5073900;28;20033;-67
2023/07/07 06:38:16;;;;;;;9.20;6.00;;;23.50;99.90;;;;;;5073712;28;20095;-67
2023/07/07 06:40:42;;;;;;;9.10;5.53;;;23.70;99.90;;;;;;5073508;28;20032;-67
2023/07/07 06:43:07;;;;;;;12.55;6.43;;;24.00;99.90;;;;;;5073833;28;20033;-67
2023/07/07 06:45:34;;;;;;;10.15;6.35;;;24.20;99.50;;;;;;5073032;28;20154;-67
2023/07/07 06:48:02;;;;;;;9.35;5.82;;;24.40;99.00;;;;;;5073453;28;20404;-67
2023/07/07 06:50:31;;;;;;;6.85;4.72;;;24.50;98.50;;;;;;5073238;28;20043;-67
2023/07/07 06:52:56;;;;;;;8.27;5.72;;;24.70;97.70;;;;;;5073713;28;20028;-67
2023/07/07 06:55:23;;;;;;;7.50;5.25;;;24.90;97.30;;;;;;5073610;28;20511;-67
2023/07/07 06:57:49;;;;;;;9.93;5.68;;;25.00;97.30;;;;;;5073244;28;20032;-67
2023/07/07 07:00:15;;;;;;;4.78;3.83;;;25.10;96.20;;;;;;5072966;28;20052;-67
2023/07/07 07:02:42;;;;;;;8.55;5.13;;;25.20;96.10;;;;;;5073579;28;20079;-67
2023/07/07 07:05:08;;;;;;;8.13;4.72;;;25.30;95.50;;;;;;5073336;28;20055;-67
2023/07/07 07:07:34;;;;;;;10.07;4.60;;;25.20;94.90;;;;;;5073121;28;20048;-67
2023/07/07 07:10:03;;;;;;;9.75;4.85;;;25.10;94.60;;;;;;5072480;28;20158;-67
2023/07/07 07:12:30;;;;;;;9.48;4.60;;;25.30;94.00;;;;;;5054944;28;20086;-67
2023/07/07 07:14:56;;;;;;;9.20;4.85;;;25.60;93.90;;;;;;5072701;28;20033;-67
2023/07/07 07:17:23;;;;;;;7.15;4.88;;;25.80;93.30;;;;;;5069938;28;20028;-68
2023/07/07 07:19:48;;;;;;;8.95;4.88;;;26.00;92.90;;;;;;5054565;28;20033;-67
2023/07/07 07:22:14;;;;;;;6.13;4.00;;;26.20;92.30;;;;;;5069381;28;20032;-67
2023/07/07 07:24:41;;;;;;;8.15;3.92;;;26.30;91.40;;;;;;5054418;28;20408;-68
2023/07/07 07:27:07;;;;;;;8.55;3.90;;;26.30;90.10;;;;;;5070217;28;20107;-69
2023/07/07 07:29:33;;;;;;;6.68;3.78;;;26.50;90.40;;;;;;5072562;28;20115;-67
2023/07/07 07:32:00;;;;;;;7.35;3.75;;;26.50;88.70;;;;;;5071788;28;20047;-67
2023/07/07 07:34:31;;;;;;;7.20;3.63;;;26.70;86.80;;;;;;5071096;28;20044;-68
2023/07/07 07:37:00;;;;;;;8.63;3.38;;;26.80;83.30;;;;;;5069163;28;20527;-68
2023/07/07 07:39:26;;;;;;;4.18;2.63;;;27.00;83.40;;;;;;5072091;28;20560;-68
2023/07/07 07:41:53;;;;;;;5.97;2.88;;;27.00;80.90;;;;;;5068297;28;20069;-68
2023/07/07 07:44:20;;;;;;;6.20;2.95;;;26.80;77.80;;;;;;5068087;28;20044;-68
2023/07/07 07:46:47;;;;;;;4.65;2.80;;;27.20;75.90;;;;;;5072284;28;20569;-68
2023/07/07 07:49:13;;;;;;;6.50;2.53;;;27.20;74.50;;;;;;5070775;28;20040;-68
2023/07/07 07:51:39;;;;;;;6.63;2.78;;;27.50;72.50;;;;;;5071850;28;20404;-68
2023/07/07 07:54:10;;;;;;;7.28;3.42;;;27.80;73.50;;;;;;5069495;28;20601;-68
2023/07/07 07:56:37;;;;;;;5.70;3.15;;;27.70;72.60;;;;;;5071757;28;20044;-68
2023/07/07 07:59:03;;;;;;;5.88;2.72;;;27.60;71.40;;;;;;5068123;28;20071;-68
2023/07/07 08:01:28;;;;;;;6.55;2.83;;;27.90;70.20;;;;;;5070936;28;20123;-68
2023/07/07 08:03:55;;;;;;;5.30;2.67;;;28.00;69.50;;;;;;5071649;28;20119;-68
2023/07/07 08:06:20;;;;;;;7.05;2.60;;;28.10;68.30;;;;;;5072024;28;20040;-68
2023/07/07 08:08:46;;;;;;;4.32;2.15;;;28.20;68.80;;;;;;5070583;28;20093;-68
2023/07/07 08:11:16;;;;;;;4.70;2.45;;;28.40;67.20;;;;;;5071426;28;20090;-68
2023/07/07 08:13:42;;;;;;;5.65;2.35;;;28.30;65.10;;;;;;5061686;28;20060;-68
2023/07/07 08:16:11;;;;;;;4.95;2.17;;;28.50;64.40;;;;;;5071551;28;20075;-68
2023/07/07 08:18:38;;;;;;;6.85;2.35;;;28.50;62.00;;;;;;5071363;28;20050;-68
2023/07/07 08:21:05;;;;;;;4.35;2.53;;;28.40;60.30;;;;;;5061085;28;20047;-67
2023/07/07 08:23:31;;;;;;;4.38;2.05;;;28.60;59.90;;;;;;5069165;28;20418;-68
2023/07/07 08:25:56;;;;;;;6.07;2.70;;;28.70;60.20;;;;;;5069436;28;20047;-68
2023/07/07 08:28:22;;;;;;;3.40;2.33;;;28.70;58.60;;;;;;5068433;28;20385;-68
2023/07/07 08:30:47;;;;;;;5.63;2.92;;;28.90;59.00;;;;;;5061654;28;20037;-68
2023/07/07 08:33:13;;;;;;;4.85;2.20;;;28.90;59.20;;;;;;5071362;28;20295;-68
2023/07/07 08:35:39;;;;;;;6.15;2.42;;;28.50;59.00;;;;;;5069554;28;20112;-69
2023/07/07 08:38:05;;;;;;;3.97;2.00;;;28.50;59.20;;;;;;5069145;28;20032;-70
2023/07/07 08:40:43;;;;;;;4.55;2.45;;;28.20;57.90;;;;;;5058011;28;20037;-70
2023/07/07 08:43:11;;;;;;;4.32;2.40;;;27.80;55.90;;;;;;5067457;28;20047;-69
2023/07/07 08:45:43;;;;;;;3.75;1.90;;;27.60;57.90;;;;;;5070418;28;20037;-69
2023/07/07 08:48:24;;;;;;;2.72;2.10;;;27.60;56.60;;;;;;5071147;28;20033;-70
2023/07/07 08:50:56;;;;;;;3.78;2.30;;;27.50;56.40;;;;;;5063988;28;20037;-69
2023/07/07 08:54:00;;;;;;;3.55;2.63;;;27.60;57.30;;;;;;5071608;28;20412;-70
2023/07/07 08:56:45;;;;;;;2.97;1.88;;;27.60;56.50;;;;;;5057751;28;20037;-70
2023/07/07 08:59:54;;;;;;;4.25;1.95;;;27.70;55.30;;;;;;5071228;28;20090;-69
2023/07/07 09:02:23;;;;;;;6.03;2.63;;;28.10;53.90;;;;;;4970053;28;20078;-69
2023/07/07 09:05:07;;;;;;;5.70;2.92;;;28.00;55.20;;;;;;4970463;28;20055;-70
2023/07/07 09:08:00;;;;;;;2.50;2.15;;;27.90;52.40;;;;;;5035497;28;20055;-70
2023/07/07 09:10:35;;;;;;;;;;;28.10;52.20;;;;;;5071641;28;20109;-70
2023/07/07 09:13:17;;;;;;;2.78;1.70;;;28.10;51.00;;;;;;5071188;28;19920;-71
2023/07/07 09:15:51;;;;;;;5.85;1.90;;;28.10;51.70;;;;;;5051254;28;20048;-71
2023/07/07 09:18:25;;;;;;;3.42;2.10;;;28.40;50.80;;;;;;5033406;28;20168;-71
2023/07/07 09:20:55;;;;;;;13.05;4.15;;;28.50;50.60;;;;;;5053357;28;20048;-70
2023/07/07 09:23:27;;;;;;;3.42;2.05;;;28.40;50.20;;;;;;5055638;28;20101;-70
2023/07/07 09:26:02;;;;;;;4.72;2.15;;;28.40;49.70;;;;;;5070251;28;20048;-70
2023/07/07 09:28:32;;;;;;;3.08;2.17;;;28.40;49.60;;;;;;5070716;28;20051;-70
2023/07/07 09:31:09;;;;;;;3.40;1.70;;;28.50;48.90;;;;;;5069495;28;20049;-70
2023/07/07 09:33:34;;;;;;;4.70;2.30;;;28.40;47.60;;;;;;5073342;28;20036;-71
2023/07/07 09:36:23;;;;;;;4.15;1.90;;;28.30;48.10;;;;;;5075185;28;20055;-70
2023/07/07 09:39:21;;;;;;;3.15;1.67;;;28.50;48.50;;;;;;5058519;28;20049;-70
2023/07/07 09:42:15;;;;;;;6.30;2.22;;;28.50;47.90;;;;;;5071845;28;20555;-71
2023/07/07 09:44:58;;;;;;;6.18;2.00;;;28.30;45.20;;;;;;5100281;22;20094;-71
2023/07/07 09:47:54;;;;;;;2.55;2.10;;;28.40;47.30;;;;;;5073835;28;20048;-70
2023/07/07 09:50:32;;;;;;;4.20;1.92;;;28.20;44.90;;;;;;5074454;28;20064;-70
2023/07/07 09:53:15;;;;;;;5.25;2.10;;;28.00;45.10;;;;;;5074880;28;20068;-70
2023/07/07 09:55:42;;;;;;;4.03;2.08;;;28.20;48.00;;;;;;5074962;28;20150;-70
2023/07/07 09:58:29;;;;;;;3.65;1.92;;;28.30;48.40;;;;;;5074039;28;20518;-70
2023/07/07 10:00:59;;;;;;;5.82;2.38;;;28.40;45.40;;;;;;5074436;28;20051;-70
2023/07/07 10:03:35;;;;;;;3.92;1.95;;;28.40;47.00;;;;;;5074541;28;20037;-69
2023/07/07 10:06:10;;;;;;;4.35;1.98;;;28.30;45.70;;;;;;5074711;28;20036;-70
2023/07/07 10:08:36;;;;;;;2.92;1.73;;;28.20;46.20;;;;;;5074387;28;20049;-70
2023/07/07 10:11:18;;;;;;;3.65;2.30;;;28.30;45.90;;;;;;5072713;28;20048;-70
2023/07/07 10:13:43;;;;;;;4.20;1.90;;;28.30;45.30;;;;;;5074477;28;20044;-70
2023/07/07 10:16:24;;;;;;;3.28;1.98;;;28.30;47.20;;;;;;5074310;28;20119;-70
2023/07/07 10:18:49;;;;;;;4.80;2.05;;;28.20;46.90;;;;;;5074345;28;20119;-70
2023/07/07 10:21:18;;;;;;;7.60;2.53;;;27.90;46.20;;;;;;5073938;28;20120;-70
2023/07/07 10:23:44;;;;;;;4.15;2.20;;;27.60;44.40;;;;;;5073312;28;20076;-70
2023/07/07 10:26:10;;;;;;;2.50;1.90;;;27.60;44.40;;;;;;5074278;28;20079;-71
2023/07/07 10:28:36;;;;;;;3.75;2.55;;;27.40;44.30;;;;;;5073927;28;20037;-70
2023/07/07 10:31:02;;;;;;;3.20;2.08;;;27.40;44.30;;;;;;5073987;28;20464;-70
2023/07/07 10:33:27;;;;;;;4.35;2.17;;;27.40;44.70;;;;;;5074302;28;20032;-70
2023/07/07 10:35:53;;;;;;;4.25;2.22;;;27.40;45.50;;;;;;5074113;28;20170;-70
2023/07/07 10:38:18;;;;;;;3.78;1.90;;;27.70;47.00;;;;;;5073619;28;20036;-70
2023/07/07 10:40:45;;;;;;;2.60;2.08;;;27.70;46.20;;;;;;5073472;28;20036;-70
2023/07/07 10:43:13;;;;;;;4.82;2.30;;;27.70;45.50;;;;;;5073872;28;20051;-70
2023/07/07 10:45:44;;;;;;;4.55;1.88;;;27.80;47.70;;;;;;5072488;28;20518;-69
2023/07/07 10:48:12;;;;;;;6.10;2.03;;;27.70;48.10;;;;;;5073736;28;20036;-70
2023/07/07 10:50:51;;;;;;;4.25;1.92;;;27.80;47.30;;;;;;5072104;28;20048;-70
2023/07/07 10:53:38;;;;;;;4.38;2.28;;;27.60;45.00;;;;;;5073834;28;20125;-70
2023/07/07 10:56:22;;;;;;;3.63;2.00;;;27.30;44.90;;;;;;5072657;28;20133;-70
2023/07/07 10:59:21;;;;;;;3.58;1.98;;;27.20;45.60;;;;;;5073513;28;20103;-70
2023/07/07 11:02:02;;;;;;;4.80;2.08;;;27.00;45.00;;;;;;5073145;28;20048;-70
2023/07/07 11:04:28;;;;;;;4.43;1.83;;;27.20;46.20;;;;;;5073751;28;20048;-70
2023/07/07 11:07:25;;;;;;;2.35;1.55;;;26.90;45.10;;;;;;5073636;28;20036;-69
2023/07/07 11:09:56;;;;;;;4.25;2.20;;;26.60;44.10;;;;;;5073569;28;20044;-69
2023/07/07 11:12:47;;;;;;;4.87;2.03;;;26.50;43.90;;;;;;5072861;28;20562;-69
2023/07/07 11:15:36;;;;;;;4.53;2.10;;;26.40;43.90;;;;;;5073104;28;20052;-70
2023/07/07 11:18:25;;;;;;;3.85;1.80;;;26.40;44.90;;;;;;5073150;28;20040;-71
2023/07/07 11:21:10;;;;;;;5.88;2.42;;;26.40;44.60;;;;;;5072885;28;20503;-70
2023/07/07 11:23:53;;;;;;;2.95;1.85;;;26.40;45.40;;;;;;5073406;28;20043;-70
2023/07/07 11:26:34;;;;;;;5.10;2.10;;;26.40;44.80;;;;;;5072035;28;20052;-70
2023/07/07 11:29:32;;;;;;;3.70;2.13;;;26.40;43.70;;;;;;5072694;28;20043;-69
2023/07/07 11:32:24;;;;;;;5.20;2.00;;;26.30;42.70;;;;;;5066631;28;20032;-70
2023/07/07 11:35:28;;;;;;;3.70;1.92;;;26.20;42.30;;;;;;5071363;28;20040;-69
2023/07/07 11:38:45;;;;;;;3.85;1.85;;;26.20;42.90;;;;;;5052069;28;20053;-69
2023/07/07 11:41:22;;;;;;;3.35;2.08;;;26.20;43.40;;;;;;5034833;28;20048;-70
2023/07/07 11:44:02;;;;;;;3.80;2.00;;;26.20;43.60;;;;;;5052825;28;20033;-69
2023/07/07 11:46:55;;;;;;;4.40;2.10;;;26.30;43.50;;;;;;5052358;28;20068;-70
2023/07/07 11:49:35;;;;;;;3.50;2.05;;;26.50;45.00;;;;;;5059658;28;20496;-69
2023/07/07 11:52:17;;;;;;;3.20;2.15;;;26.40;44.90;;;;;;5071944;28;20082;-69
2023/07/07 11:54:57;;;;;;;2.95;2.00;;;26.60;44.50;;;;;;5072669;28;20123;-69
2023/07/07 11:57:34;;;;;;;4.20;2.10;;;26.80;45.10;;;;;;5071907;28;20097;-69
2023/07/07 12:00:27;;;;;;;4.13;2.35;;;26.80;44.10;;;;;;5072537;28;20085;-70
2023/07/07 12:02:55;;;;;;;;;;;27.00;44.80;;;;;;5071832;28;20052;-69
2023/07/07 12:05:35;;;;;;;5.60;2.55;;;26.90;44.10;;;;;;5071464;28;19967;-69
2023/07/07 12:08:15;;;;;;;4.88;2.17;;;26.70;43.00;;;;;;5072179;28;20067;-69
2023/07/07 12:10:55;;;;;;;4.93;2.47;;;26.90;44.50;;;;;;5071630;28;20051;-70
2023/07/07 12:13:34;;;;;;;5.43;1.90;;;26.90;44.50;;;;;;5071173;28;20059;-69
2023/07/07 12:16:17;;;;;;;4.38;1.83;;;27.00;45.00;;;;;;5072120;28;20530;-69
2023/07/07 12:18:46;;;;;;;3.92;2.30;;;27.20;46.30;;;;;;5071935;28;20044;-70
2023/07/07 12:21:17;;;;;;;5.57;1.98;;;27.10;45.50;;;;;;5070375;28;20519;-70
2023/07/07 12:24:04;;;;;;;5.65;2.22;;;27.20;45.20;;;;;;5071384;28;20044;-70
2023/07/07 12:26:37;;;;;;;6.85;2.22;;;27.30;45.40;;;;;;5071289;28;20101;-69
2023/07/07 12:29:05;;;;;;;7.45;2.20;;;26.90;43.30;;;;;;5073477;28;20396;-69
2023/07/07 12:31:30;;;;;;;8.07;2.28;;;26.80;44.10;;;;;;5072030;28;20048;-70
2023/07/07 12:33:56;;;;;;;9.05;2.70;;;26.70;44.00;;;;;;5070857;28;20044;-70
2023/07/07 12:36:28;;;;;;;4.45;2.25;;;26.60;43.10;;;;;;5070801;28;20032;-70
2023/07/07 12:38:56;;;;;;;2.83;2.00;;;26.60;42.50;;;;;;5070343;28;20044;-70
2023/07/07 12:41:26;;;;;;;3.17;2.10;;;26.40;42.00;;;;;;5070396;28;20126;-69
2023/07/07 12:44:02;;;;;;;2.67;1.95;;;26.50;41.20;;;;;;5070724;28;20044;-70
2023/07/07 12:46:31;;;;;;;2.67;1.90;;;26.50;41.40;;;;;;5070583;28;20515;-69
2023/07/07 12:49:00;;;;;;;5.00;2.10;;;26.50;40.60;;;;;;5070388;28;20072;-70
2023/07/07 12:51:31;;;;;;;3.05;2.05;;;26.50;41.00;;;;;;5071345;28;20045;-70
2023/07/07 12:53:57;;;;;;;3.83;2.15;;;26.50;40.50;;;;;;5070382;28;20098;-69
2023/07/07 12:56:26;;;;;;;4.53;2.15;;;26.60;40.30;;;;;;5071405;28;20528;-69
2023/07/07 12:58:53;;;;;;;4.68;1.73;;;26.50;40.00;;;;;;5070229;28;20401;-70
2023/07/07 13:01:18;;;;;;;4.00;2.25;;;26.60;41.00;;;;;;5070136;28;20083;-70